sensor_id;sensor_type;location;lat;lon;timestamp;P1;durP1;ratioP1;P2;durP2;ratioP2
65230;SDS011;51813;40.666;16.602;2023-04-24T00:00:03;6.47;;;4.72;;
65230;SDS011;51813;40.666;16.602;2023-04-24T00:02:37;5.82;;;4.57;;
65230;SDS011;51813;40.666;16.602;2023-04-24T00:05:04;6.65;;;4.25;;
65230;SDS011;51813;40.666;16.602;2023-04-24T00:07:30;5.47;;;4.47;;
65230;SDS011;51813;40.666;16.602;2023-04-24T00:09:56;6.30;;;4.40;;
65230;SDS011;51813;40.666;16.602;2023-04-24T00:12:22;5.97;;;4.60;;
65230;SDS011;51813;40.666;16.602;2023-04-24T00:14:48;6.47;;;4.40;;
65230;SDS011;51813;40.666;16.602;2023-04-24T00:17:14;5.95;;;4.72;;
65230;SDS011;51813;40.666;16.602;2023-04-24T00:19:40;5.25;;;4.28;;
65230;SDS011;51813;40.666;16.602;2023-04-24T00:22:05;6.90;;;5.00;;
65230;SDS011;51813;40.666;16.602;2023-04-24T00:24:31;5.60;;;5.00;;
65230;SDS011;51813;40.666;16.602;2023-04-24T00:26:57;5.93;;;4.70;;
65230;SDS011;51813;40.666;16.602;2023-04-24T00:29:23;6.82;;;4.90;;
65230;SDS011;51813;40.666;16.602;2023-04-24T00:31:49;6.05;;;4.75;;
65230;SDS011;51813;40.666;16.602;2023-04-24T00:34:14;5.68;;;4.60;;
65230;SDS011;51813;40.666;16.602;2023-04-24T00:36:40;7.88;;;5.25;;
65230;SDS011;51813;40.666;16.602;2023-04-24T00:39:06;7.35;;;4.72;;
65230;SDS011;51813;40.666;16.602;2023-04-24T00:41:33;6.43;;;4.85;;
65230;SDS011;51813;40.666;16.602;2023-04-24T00:44:00;6.78;;;4.85;;
65230;SDS011;51813;40.666;16.602;2023-04-24T00:46:26;6.13;;;4.88;;
65230;SDS011;51813;40.666;16.602;2023-04-24T00:48:52;4.97;;;3.92;;
65230;SDS011;51813;40.666;16.602;2023-04-24T00:51:18;5.88;;;4.40;;
65230;SDS011;51813;40.666;16.602;2023-04-24T00:53:43;6.60;;;4.88;;
65230;SDS011;51813;40.666;16.602;2023-04-24T00:56:09;7.00;;;4.82;;
65230;SDS011;51813;40.666;16.602;2023-04-24T00:58:35;6.25;;;4.75;;
65230;SDS011;51813;40.666;16.602;2023-04-24T01:01:02;5.38;;;4.45;;
65230;SDS011;51813;40.666;16.602;2023-04-24T01:03:31;6.18;;;4.60;;
65230;SDS011;51813;40.666;16.602;2023-04-24T01:05:58;5.70;;;4.43;;
65230;SDS011;51813;40.666;16.602;2023-04-24T01:08:24;6.63;;;4.75;;
65230;SDS011;51813;40.666;16.602;2023-04-24T01:10:53;6.63;;;4.57;;
65230;SDS011;51813;40.666;16.602;2023-04-24T01:13:19;6.30;;;4.90;;
65230;SDS011;51813;40.666;16.602;2023-04-24T01:15:46;7.10;;;5.03;;
65230;SDS011;51813;40.666;16.602;2023-04-24T01:18:12;6.85;;;4.88;;
65230;SDS011;51813;40.666;16.602;2023-04-24T01:20:39;7.20;;;5.15;;
65230;SDS011;51813;40.666;16.602;2023-04-24T01:23:09;6.20;;;4.97;;
65230;SDS011;51813;40.666;16.602;2023-04-24T01:25:35;5.25;;;4.15;;
65230;SDS011;51813;40.666;16.602;2023-04-24T01:28:01;5.78;;;4.40;;
65230;SDS011;51813;40.666;16.602;2023-04-24T01:30:27;6.38;;;5.30;;
65230;SDS011;51813;40.666;16.602;2023-04-24T01:32:54;7.95;;;4.95;;
65230;SDS011;51813;40.666;16.602;2023-04-24T01:35:21;7.13;;;4.72;;
65230;SDS011;51813;40.666;16.602;2023-04-24T01:37:47;7.13;;;5.35;;
65230;SDS011;51813;40.666;16.602;2023-04-24T01:40:12;6.63;;;5.18;;
65230;SDS011;51813;40.666;16.602;2023-04-24T01:42:40;5.90;;;4.57;;
65230;SDS011;51813;40.666;16.602;2023-04-24T01:45:06;7.05;;;4.82;;
65230;SDS011;51813;40.666;16.602;2023-04-24T01:47:35;6.43;;;5.03;;
65230;SDS011;51813;40.666;16.602;2023-04-24T01:50:01;7.95;;;5.30;;
65230;SDS011;51813;40.666;16.602;2023-04-24T01:52:27;6.18;;;4.75;;
65230;SDS011;51813;40.666;16.602;2023-04-24T01:54:56;6.05;;;5.05;;
65230;SDS011;51813;40.666;16.602;2023-04-24T01:57:24;6.68;;;4.85;;
65230;SDS011;51813;40.666;16.602;2023-04-24T01:59:50;6.57;;;4.63;;
65230;SDS011;51813;40.666;16.602;2023-04-24T02:02:16;6.68;;;4.82;;
65230;SDS011;51813;40.666;16.602;2023-04-24T02:04:42;8.80;;;5.88;;
65230;SDS011;51813;40.666;16.602;2023-04-24T02:07:08;7.75;;;5.28;;
65230;SDS011;51813;40.666;16.602;2023-04-24T02:09:33;6.38;;;5.10;;
65230;SDS011;51813;40.666;16.602;2023-04-24T02:11:59;6.00;;;4.30;;
65230;SDS011;51813;40.666;16.602;2023-04-24T02:14:25;8.43;;;5.28;;
65230;SDS011;51813;40.666;16.602;2023-04-24T02:16:51;7.22;;;4.97;;
65230;SDS011;51813;40.666;16.602;2023-04-24T02:19:18;5.93;;;5.07;;
65230;SDS011;51813;40.666;16.602;2023-04-24T02:21:44;6.03;;;4.70;;
65230;SDS011;51813;40.666;16.602;2023-04-24T02:24:10;6.53;;;4.85;;
65230;SDS011;51813;40.666;16.602;2023-04-24T02:26:35;6.10;;;4.85;;
65230;SDS011;51813;40.666;16.602;2023-04-24T02:29:01;6.43;;;4.70;;
65230;SDS011;51813;40.666;16.602;2023-04-24T02:31:27;5.68;;;4.63;;
65230;SDS011;51813;40.666;16.602;2023-04-24T02:33:52;6.65;;;4.88;;
65230;SDS011;51813;40.666;16.602;2023-04-24T02:36:18;6.65;;;4.70;;
65230;SDS011;51813;40.666;16.602;2023-04-24T02:38:44;5.55;;;4.68;;
65230;SDS011;51813;40.666;16.602;2023-04-24T02:41:10;5.90;;;4.88;;
65230;SDS011;51813;40.666;16.602;2023-04-24T02:43:36;6.68;;;4.80;;
65230;SDS011;51813;40.666;16.602;2023-04-24T02:46:01;6.32;;;4.47;;
65230;SDS011;51813;40.666;16.602;2023-04-24T02:48:27;7.13;;;4.63;;
65230;SDS011;51813;40.666;16.602;2023-04-24T02:50:53;6.68;;;4.45;;
65230;SDS011;51813;40.666;16.602;2023-04-24T02:53:19;5.97;;;4.47;;
65230;SDS011;51813;40.666;16.602;2023-04-24T02:55:45;7.13;;;4.40;;
65230;SDS011;51813;40.666;16.602;2023-04-24T02:58:11;6.63;;;4.72;;
65230;SDS011;51813;40.666;16.602;2023-04-24T03:00:38;6.88;;;4.90;;
65230;SDS011;51813;40.666;16.602;2023-04-24T03:03:04;6.65;;;4.43;;
65230;SDS011;51813;40.666;16.602;2023-04-24T03:05:30;6.45;;;4.30;;
65230;SDS011;51813;40.666;16.602;2023-04-24T03:07:56;6.18;;;4.53;;
65230;SDS011;51813;40.666;16.602;2023-04-24T03:10:22;6.20;;;4.68;;
65230;SDS011;51813;40.666;16.602;2023-04-24T03:12:48;7.70;;;4.47;;
65230;SDS011;51813;40.666;16.602;2023-04-24T03:15:13;6.82;;;4.05;;
65230;SDS011;51813;40.666;16.602;2023-04-24T03:17:39;5.28;;;3.90;;
65230;SDS011;51813;40.666;16.602;2023-04-24T03:20:05;15.85;;;6.00;;
65230;SDS011;51813;40.666;16.602;2023-04-24T03:22:33;10.27;;;4.47;;
65230;SDS011;51813;40.666;16.602;2023-04-24T03:24:59;6.88;;;4.93;;
65230;SDS011;51813;40.666;16.602;2023-04-24T03:27:25;8.90;;;4.95;;
65230;SDS011;51813;40.666;16.602;2023-04-24T03:29:51;7.32;;;4.55;;
65230;SDS011;51813;40.666;16.602;2023-04-24T03:32:20;14.38;;;5.35;;
65230;SDS011;51813;40.666;16.602;2023-04-24T03:34:48;10.77;;;5.80;;
65230;SDS011;51813;40.666;16.602;2023-04-24T03:37:15;15.70;;;6.82;;
65230;SDS011;51813;40.666;16.602;2023-04-24T03:39:41;10.77;;;4.65;;
65230;SDS011;51813;40.666;16.602;2023-04-24T03:42:07;9.50;;;4.97;;
65230;SDS011;51813;40.666;16.602;2023-04-24T03:44:33;8.68;;;4.78;;
65230;SDS011;51813;40.666;16.602;2023-04-24T03:47:00;10.07;;;5.70;;
65230;SDS011;51813;40.666;16.602;2023-04-24T03:49:25;10.20;;;5.35;;
65230;SDS011;51813;40.666;16.602;2023-04-24T03:51:51;8.68;;;4.65;;
65230;SDS011;51813;40.666;16.602;2023-04-24T03:54:17;9.70;;;4.40;;
65230;SDS011;51813;40.666;16.602;2023-04-24T03:56:44;8.25;;;4.53;;
65230;SDS011;51813;40.666;16.602;2023-04-24T03:59:10;9.30;;;5.13;;
65230;SDS011;51813;40.666;16.602;2023-04-24T04:01:36;6.65;;;4.05;;
65230;SDS011;51813;40.666;16.602;2023-04-24T04:04:02;7.30;;;4.65;;
65230;SDS011;51813;40.666;16.602;2023-04-24T04:06:31;11.07;;;4.35;;
65230;SDS011;51813;40.666;16.602;2023-04-24T04:08:57;8.05;;;4.45;;
65230;SDS011;51813;40.666;16.602;2023-04-24T04:11:24;7.38;;;4.63;;
65230;SDS011;51813;40.666;16.602;2023-04-24T04:13:50;7.57;;;4.30;;
65230;SDS011;51813;40.666;16.602;2023-04-24T04:16:16;6.63;;;4.25;;
65230;SDS011;51813;40.666;16.602;2023-04-24T04:18:42;6.22;;;4.22;;
65230;SDS011;51813;40.666;16.602;2023-04-24T04:21:08;7.35;;;4.22;;
65230;SDS011;51813;40.666;16.602;2023-04-24T04:23:34;5.78;;;4.80;;
65230;SDS011;51813;40.666;16.602;2023-04-24T04:26:00;7.03;;;4.50;;
65230;SDS011;51813;40.666;16.602;2023-04-24T04:28:27;6.80;;;4.07;;
65230;SDS011;51813;40.666;16.602;2023-04-24T04:30:52;7.32;;;3.80;;
65230;SDS011;51813;40.666;16.602;2023-04-24T04:33:21;5.47;;;3.53;;
65230;SDS011;51813;40.666;16.602;2023-04-24T04:35:47;7.05;;;3.90;;
65230;SDS011;51813;40.666;16.602;2023-04-24T04:38:17;5.50;;;4.13;;
65230;SDS011;51813;40.666;16.602;2023-04-24T04:40:43;6.75;;;3.70;;
65230;SDS011;51813;40.666;16.602;2023-04-24T04:43:09;7.20;;;4.47;;
65230;SDS011;51813;40.666;16.602;2023-04-24T04:45:36;5.90;;;3.80;;
65230;SDS011;51813;40.666;16.602;2023-04-24T04:48:04;6.00;;;3.63;;
65230;SDS011;51813;40.666;16.602;2023-04-24T04:50:32;5.65;;;3.55;;
65230;SDS011;51813;40.666;16.602;2023-04-24T04:52:58;5.07;;;3.65;;
65230;SDS011;51813;40.666;16.602;2023-04-24T04:55:23;5.75;;;3.90;;
65230;SDS011;51813;40.666;16.602;2023-04-24T04:57:49;5.28;;;3.50;;
65230;SDS011;51813;40.666;16.602;2023-04-24T05:00:16;7.07;;;3.70;;
65230;SDS011;51813;40.666;16.602;2023-04-24T05:02:41;5.15;;;3.47;;
65230;SDS011;51813;40.666;16.602;2023-04-24T05:05:07;5.45;;;3.78;;
65230;SDS011;51813;40.666;16.602;2023-04-24T05:07:33;4.97;;;3.60;;
65230;SDS011;51813;40.666;16.602;2023-04-24T05:09:59;6.22;;;3.72;;
65230;SDS011;51813;40.666;16.602;2023-04-24T05:12:25;5.72;;;3.40;;
65230;SDS011;51813;40.666;16.602;2023-04-24T05:14:50;4.15;;;3.10;;
65230;SDS011;51813;40.666;16.602;2023-04-24T05:17:16;5.80;;;3.30;;
65230;SDS011;51813;40.666;16.602;2023-04-24T05:19:42;5.55;;;3.60;;
65230;SDS011;51813;40.666;16.602;2023-04-24T05:22:08;4.60;;;3.08;;
65230;SDS011;51813;40.666;16.602;2023-04-24T05:24:34;4.57;;;3.30;;
65230;SDS011;51813;40.666;16.602;2023-04-24T05:27:01;5.28;;;3.20;;
65230;SDS011;51813;40.666;16.602;2023-04-24T05:29:31;5.00;;;3.53;;
65230;SDS011;51813;40.666;16.602;2023-04-24T05:31:58;4.75;;;3.50;;
65230;SDS011;51813;40.666;16.602;2023-04-24T05:34:24;5.20;;;3.33;;
65230;SDS011;51813;40.666;16.602;2023-04-24T05:36:50;4.28;;;3.20;;
65230;SDS011;51813;40.666;16.602;2023-04-24T05:39:16;4.68;;;3.28;;
65230;SDS011;51813;40.666;16.602;2023-04-24T05:41:42;4.75;;;3.30;;
65230;SDS011;51813;40.666;16.602;2023-04-24T05:44:08;4.97;;;3.08;;
65230;SDS011;51813;40.666;16.602;2023-04-24T05:46:34;4.53;;;3.28;;
65230;SDS011;51813;40.666;16.602;2023-04-24T05:49:00;5.13;;;3.42;;
65230;SDS011;51813;40.666;16.602;2023-04-24T05:51:26;5.07;;;3.40;;
65230;SDS011;51813;40.666;16.602;2023-04-24T05:53:52;4.20;;;3.30;;
65230;SDS011;51813;40.666;16.602;2023-04-24T05:56:17;4.55;;;3.30;;
65230;SDS011;51813;40.666;16.602;2023-04-24T05:58:43;4.82;;;2.92;;
65230;SDS011;51813;40.666;16.602;2023-04-24T06:01:10;4.13;;;3.10;;
65230;SDS011;51813;40.666;16.602;2023-04-24T06:03:37;4.88;;;3.10;;
65230;SDS011;51813;40.666;16.602;2023-04-24T06:06:03;4.78;;;3.08;;
65230;SDS011;51813;40.666;16.602;2023-04-24T06:08:29;5.25;;;3.30;;
65230;SDS011;51813;40.666;16.602;2023-04-24T06:10:55;4.50;;;3.10;;
65230;SDS011;51813;40.666;16.602;2023-04-24T06:13:20;5.53;;;3.15;;
65230;SDS011;51813;40.666;16.602;2023-04-24T06:15:46;4.40;;;3.00;;
65230;SDS011;51813;40.666;16.602;2023-04-24T06:18:11;4.85;;;3.30;;
65230;SDS011;51813;40.666;16.602;2023-04-24T06:20:37;4.05;;;2.88;;
65230;SDS011;51813;40.666;16.602;2023-04-24T06:23:03;4.28;;;3.10;;
65230;SDS011;51813;40.666;16.602;2023-04-24T06:25:29;4.32;;;3.25;;
65230;SDS011;51813;40.666;16.602;2023-04-24T06:27:55;4.38;;;2.72;;
65230;SDS011;51813;40.666;16.602;2023-04-24T06:30:21;4.18;;;2.80;;
65230;SDS011;51813;40.666;16.602;2023-04-24T06:32:47;4.28;;;2.88;;
65230;SDS011;51813;40.666;16.602;2023-04-24T06:35:13;3.78;;;2.80;;
65230;SDS011;51813;40.666;16.602;2023-04-24T06:37:39;5.22;;;3.35;;
65230;SDS011;51813;40.666;16.602;2023-04-24T06:40:06;4.07;;;3.15;;
65230;SDS011;51813;40.666;16.602;2023-04-24T06:42:32;4.45;;;3.05;;
65230;SDS011;51813;40.666;16.602;2023-04-24T06:44:58;4.22;;;3.20;;
65230;SDS011;51813;40.666;16.602;2023-04-24T06:47:24;4.18;;;3.03;;
65230;SDS011;51813;40.666;16.602;2023-04-24T06:49:50;4.50;;;3.03;;
65230;SDS011;51813;40.666;16.602;2023-04-24T06:52:17;6.70;;;3.10;;
65230;SDS011;51813;40.666;16.602;2023-04-24T06:54:43;4.68;;;2.80;;
65230;SDS011;51813;40.666;16.602;2023-04-24T06:57:09;5.18;;;2.75;;
65230;SDS011;51813;40.666;16.602;2023-04-24T06:59:35;6.25;;;3.28;;
65230;SDS011;51813;40.666;16.602;2023-04-24T07:02:01;4.43;;;3.33;;
65230;SDS011;51813;40.666;16.602;2023-04-24T07:04:28;5.22;;;2.92;;
65230;SDS011;51813;40.666;16.602;2023-04-24T07:06:55;5.53;;;3.00;;
65230;SDS011;51813;40.666;16.602;2023-04-24T07:09:22;6.47;;;3.20;;
65230;SDS011;51813;40.666;16.602;2023-04-24T07:11:49;4.28;;;2.60;;
65230;SDS011;51813;40.666;16.602;2023-04-24T07:14:15;6.00;;;3.20;;
65230;SDS011;51813;40.666;16.602;2023-04-24T07:16:41;7.22;;;4.28;;
65230;SDS011;51813;40.666;16.602;2023-04-24T07:19:08;5.00;;;3.25;;
65230;SDS011;51813;40.666;16.602;2023-04-24T07:21:34;4.85;;;3.13;;
65230;SDS011;51813;40.666;16.602;2023-04-24T07:24:00;4.45;;;3.20;;
65230;SDS011;51813;40.666;16.602;2023-04-24T07:26:26;4.88;;;3.28;;
65230;SDS011;51813;40.666;16.602;2023-04-24T07:28:53;5.15;;;3.33;;
65230;SDS011;51813;40.666;16.602;2023-04-24T07:31:20;4.53;;;3.00;;
65230;SDS011;51813;40.666;16.602;2023-04-24T07:33:46;4.43;;;3.20;;
65230;SDS011;51813;40.666;16.602;2023-04-24T07:36:11;5.07;;;3.08;;
65230;SDS011;51813;40.666;16.602;2023-04-24T07:38:44;5.45;;;3.30;;
65230;SDS011;51813;40.666;16.602;2023-04-24T07:41:11;5.28;;;3.40;;
65230;SDS011;51813;40.666;16.602;2023-04-24T07:43:37;4.70;;;2.92;;
65230;SDS011;51813;40.666;16.602;2023-04-24T07:46:03;4.78;;;3.10;;
65230;SDS011;51813;40.666;16.602;2023-04-24T07:48:29;5.10;;;3.40;;
65230;SDS011;51813;40.666;16.602;2023-04-24T07:50:54;4.40;;;2.90;;
65230;SDS011;51813;40.666;16.602;2023-04-24T07:53:20;5.57;;;3.53;;
65230;SDS011;51813;40.666;16.602;2023-04-24T07:55:46;4.95;;;3.58;;
65230;SDS011;51813;40.666;16.602;2023-04-24T07:58:11;6.47;;;3.03;;
65230;SDS011;51813;40.666;16.602;2023-04-24T08:00:37;6.43;;;3.10;;
65230;SDS011;51813;40.666;16.602;2023-04-24T08:03:03;5.82;;;3.20;;
65230;SDS011;51813;40.666;16.602;2023-04-24T08:05:29;6.18;;;3.80;;
65230;SDS011;51813;40.666;16.602;2023-04-24T08:07:55;4.45;;;3.40;;
65230;SDS011;51813;40.666;16.602;2023-04-24T08:10:21;6.32;;;3.53;;
65230;SDS011;51813;40.666;16.602;2023-04-24T08:12:47;5.15;;;3.10;;
65230;SDS011;51813;40.666;16.602;2023-04-24T08:15:13;7.82;;;3.47;;
65230;SDS011;51813;40.666;16.602;2023-04-24T08:17:39;9.43;;;3.35;;
65230;SDS011;51813;40.666;16.602;2023-04-24T08:20:05;3.97;;;2.90;;
65230;SDS011;51813;40.666;16.602;2023-04-24T08:22:35;6.13;;;2.95;;
65230;SDS011;51813;40.666;16.602;2023-04-24T08:25:01;6.18;;;3.08;;
65230;SDS011;51813;40.666;16.602;2023-04-24T08:27:26;6.30;;;3.30;;
65230;SDS011;51813;40.666;16.602;2023-04-24T08:29:56;5.13;;;2.97;;
65230;SDS011;51813;40.666;16.602;2023-04-24T08:32:23;5.53;;;3.03;;
65230;SDS011;51813;40.666;16.602;2023-04-24T08:34:49;5.93;;;3.08;;
65230;SDS011;51813;40.666;16.602;2023-04-24T08:37:17;9.45;;;3.15;;
65230;SDS011;51813;40.666;16.602;2023-04-24T08:39:43;5.93;;;3.50;;
65230;SDS011;51813;40.666;16.602;2023-04-24T08:42:09;5.47;;;2.95;;
65230;SDS011;51813;40.666;16.602;2023-04-24T08:44:37;5.22;;;3.33;;
65230;SDS011;51813;40.666;16.602;2023-04-24T08:47:04;6.28;;;3.45;;
65230;SDS011;51813;40.666;16.602;2023-04-24T08:49:32;5.95;;;3.20;;
65230;SDS011;51813;40.666;16.602;2023-04-24T08:51:59;5.53;;;3.00;;
65230;SDS011;51813;40.666;16.602;2023-04-24T08:54:26;6.55;;;3.58;;
65230;SDS011;51813;40.666;16.602;2023-04-24T08:56:53;4.93;;;2.95;;
65230;SDS011;51813;40.666;16.602;2023-04-24T08:59:21;5.55;;;3.00;;
65230;SDS011;51813;40.666;16.602;2023-04-24T09:01:46;4.10;;;3.00;;
65230;SDS011;51813;40.666;16.602;2023-04-24T09:04:15;6.25;;;2.90;;
65230;SDS011;51813;40.666;16.602;2023-04-24T09:06:44;5.25;;;3.30;;
65230;SDS011;51813;40.666;16.602;2023-04-24T09:09:10;5.53;;;3.15;;
65230;SDS011;51813;40.666;16.602;2023-04-24T09:11:36;4.93;;;2.83;;
65230;SDS011;51813;40.666;16.602;2023-04-24T09:14:02;6.22;;;3.10;;
65230;SDS011;51813;40.666;16.602;2023-04-24T09:16:29;5.97;;;3.15;;
65230;SDS011;51813;40.666;16.602;2023-04-24T09:18:55;6.00;;;3.10;;
65230;SDS011;51813;40.666;16.602;2023-04-24T09:21:21;7.35;;;2.92;;
65230;SDS011;51813;40.666;16.602;2023-04-24T09:23:57;5.20;;;3.10;;
65230;SDS011;51813;40.666;16.602;2023-04-24T09:26:24;5.05;;;3.20;;
65230;SDS011;51813;40.666;16.602;2023-04-24T09:28:50;5.45;;;3.20;;
65230;SDS011;51813;40.666;16.602;2023-04-24T09:31:17;4.43;;;2.80;;
65230;SDS011;51813;40.666;16.602;2023-04-24T09:33:56;6.25;;;3.13;;
65230;SDS011;51813;40.666;16.602;2023-04-24T09:36:34;5.20;;;3.30;;
65230;SDS011;51813;40.666;16.602;2023-04-24T09:39:06;6.88;;;3.10;;
65230;SDS011;51813;40.666;16.602;2023-04-24T09:41:43;5.07;;;2.90;;
65230;SDS011;51813;40.666;16.602;2023-04-24T09:44:13;5.18;;;2.80;;
65230;SDS011;51813;40.666;16.602;2023-04-24T09:46:51;7.47;;;3.20;;
65230;SDS011;51813;40.666;16.602;2023-04-24T09:49:25;5.43;;;2.72;;
65230;SDS011;51813;40.666;16.602;2023-04-24T09:51:52;9.20;;;2.95;;
65230;SDS011;51813;40.666;16.602;2023-04-24T09:54:28;5.35;;;2.72;;
65230;SDS011;51813;40.666;16.602;2023-04-24T09:56:54;4.88;;;2.80;;
65230;SDS011;51813;40.666;16.602;2023-04-24T09:59:21;5.18;;;2.80;;
65230;SDS011;51813;40.666;16.602;2023-04-24T10:01:47;5.35;;;2.63;;
65230;SDS011;51813;40.666;16.602;2023-04-24T10:04:23;4.30;;;2.20;;
65230;SDS011;51813;40.666;16.602;2023-04-24T10:06:51;13.27;;;8.43;;
65230;SDS011;51813;40.666;16.602;2023-04-24T10:09:20;11.63;;;5.40;;
65230;SDS011;51813;40.666;16.602;2023-04-24T10:11:50;7.63;;;4.45;;
65230;SDS011;51813;40.666;16.602;2023-04-24T10:14:19;7.25;;;4.30;;
65230;SDS011;51813;40.666;16.602;2023-04-24T10:16:47;8.32;;;3.40;;
65230;SDS011;51813;40.666;16.602;2023-04-24T10:19:14;5.38;;;3.03;;
65230;SDS011;51813;40.666;16.602;2023-04-24T10:21:41;8.27;;;2.95;;
65230;SDS011;51813;40.666;16.602;2023-04-24T10:24:12;7.25;;;3.20;;
65230;SDS011;51813;40.666;16.602;2023-04-24T10:26:38;7.60;;;3.53;;
65230;SDS011;51813;40.666;16.602;2023-04-24T10:29:06;5.57;;;3.00;;
65230;SDS011;51813;40.666;16.602;2023-04-24T10:31:36;6.05;;;2.97;;
65230;SDS011;51813;40.666;16.602;2023-04-24T10:34:02;5.57;;;2.53;;
65230;SDS011;51813;40.666;16.602;2023-04-24T10:36:30;5.90;;;2.95;;
65230;SDS011;51813;40.666;16.602;2023-04-24T10:38:57;6.00;;;2.42;;
65230;SDS011;51813;40.666;16.602;2023-04-24T10:41:26;4.82;;;2.85;;
65230;SDS011;51813;40.666;16.602;2023-04-24T10:44:11;4.93;;;2.40;;
65230;SDS011;51813;40.666;16.602;2023-04-24T10:46:38;4.10;;;2.35;;
65230;SDS011;51813;40.666;16.602;2023-04-24T10:49:07;7.70;;;2.65;;
65230;SDS011;51813;40.666;16.602;2023-04-24T10:54:22;4.72;;;2.60;;
65230;SDS011;51813;40.666;16.602;2023-04-24T10:56:52;5.68;;;2.60;;
65230;SDS011;51813;40.666;16.602;2023-04-24T10:59:25;4.63;;;2.55;;
65230;SDS011;51813;40.666;16.602;2023-04-24T11:01:53;4.88;;;2.60;;
65230;SDS011;51813;40.666;16.602;2023-04-24T11:04:32;3.97;;;2.33;;
65230;SDS011;51813;40.666;16.602;2023-04-24T11:06:58;6.13;;;2.55;;
65230;SDS011;51813;40.666;16.602;2023-04-24T11:09:28;4.07;;;2.75;;
65230;SDS011;51813;40.666;16.602;2023-04-24T11:12:06;4.18;;;2.30;;
65230;SDS011;51813;40.666;16.602;2023-04-24T11:17:29;4.38;;;2.45;;
65230;SDS011;51813;40.666;16.602;2023-04-24T11:20:06;5.15;;;2.40;;
65230;SDS011;51813;40.666;16.602;2023-04-24T11:22:34;5.05;;;2.55;;
65230;SDS011;51813;40.666;16.602;2023-04-24T11:25:04;6.95;;;2.50;;
65230;SDS011;51813;40.666;16.602;2023-04-24T11:27:32;5.40;;;2.75;;
65230;SDS011;51813;40.666;16.602;2023-04-24T11:30:05;4.72;;;2.13;;
65230;SDS011;51813;40.666;16.602;2023-04-24T11:32:38;4.97;;;2.38;;
65230;SDS011;51813;40.666;16.602;2023-04-24T11:37:40;4.45;;;2.22;;
65230;SDS011;51813;40.666;16.602;2023-04-24T11:40:07;4.05;;;2.63;;
65230;SDS011;51813;40.666;16.602;2023-04-24T11:42:37;5.00;;;3.13;;
65230;SDS011;51813;40.666;16.602;2023-04-24T11:45:09;4.63;;;2.75;;
65230;SDS011;51813;40.666;16.602;2023-04-24T11:47:35;4.50;;;2.90;;
65230;SDS011;51813;40.666;16.602;2023-04-24T11:50:01;5.28;;;2.55;;
65230;SDS011;51813;40.666;16.602;2023-04-24T11:52:29;5.63;;;2.63;;
65230;SDS011;51813;40.666;16.602;2023-04-24T11:54:55;4.85;;;2.20;;
65230;SDS011;51813;40.666;16.602;2023-04-24T11:57:21;3.70;;;2.13;;
65230;SDS011;51813;40.666;16.602;2023-04-24T11:59:48;4.13;;;2.50;;
65230;SDS011;51813;40.666;16.602;2023-04-24T12:02:24;4.03;;;2.40;;
65230;SDS011;51813;40.666;16.602;2023-04-24T12:04:52;4.05;;;2.60;;
65230;SDS011;51813;40.666;16.602;2023-04-24T12:07:19;6.63;;;2.60;;
65230;SDS011;51813;40.666;16.602;2023-04-24T12:09:46;4.28;;;2.15;;
65230;SDS011;51813;40.666;16.602;2023-04-24T12:12:13;3.35;;;2.30;;
65230;SDS011;51813;40.666;16.602;2023-04-24T12:17:10;3.42;;;2.38;;
65230;SDS011;51813;40.666;16.602;2023-04-24T12:19:35;4.28;;;2.20;;
65230;SDS011;51813;40.666;16.602;2023-04-24T12:22:02;3.85;;;2.55;;
65230;SDS011;51813;40.666;16.602;2023-04-24T12:24:30;3.42;;;2.20;;
65230;SDS011;51813;40.666;16.602;2023-04-24T12:26:56;3.70;;;2.40;;
65230;SDS011;51813;40.666;16.602;2023-04-24T12:29:23;4.10;;;2.47;;
65230;SDS011;51813;40.666;16.602;2023-04-24T12:31:49;5.18;;;2.50;;
65230;SDS011;51813;40.666;16.602;2023-04-24T12:34:19;4.45;;;2.40;;
65230;SDS011;51813;40.666;16.602;2023-04-24T12:36:46;4.20;;;2.47;;
65230;SDS011;51813;40.666;16.602;2023-04-24T12:39:18;3.40;;;2.00;;
65230;SDS011;51813;40.666;16.602;2023-04-24T12:41:54;3.45;;;2.10;;
65230;SDS011;51813;40.666;16.602;2023-04-24T12:44:30;3.47;;;2.40;;
65230;SDS011;51813;40.666;16.602;2023-04-24T12:46:59;4.93;;;2.58;;
65230;SDS011;51813;40.666;16.602;2023-04-24T12:49:25;4.55;;;2.58;;
65230;SDS011;51813;40.666;16.602;2023-04-24T12:51:51;3.42;;;2.20;;
65230;SDS011;51813;40.666;16.602;2023-04-24T12:54:17;3.75;;;2.50;;
65230;SDS011;51813;40.666;16.602;2023-04-24T12:56:42;4.63;;;2.60;;
65230;SDS011;51813;40.666;16.602;2023-04-24T12:59:08;3.90;;;2.35;;
65230;SDS011;51813;40.666;16.602;2023-04-24T13:01:34;3.92;;;2.35;;
65230;SDS011;51813;40.666;16.602;2023-04-24T13:03:59;4.15;;;2.28;;
65230;SDS011;51813;40.666;16.602;2023-04-24T13:06:25;4.47;;;2.30;;
65230;SDS011;51813;40.666;16.602;2023-04-24T13:08:51;4.85;;;2.58;;
65230;SDS011;51813;40.666;16.602;2023-04-24T13:11:17;5.95;;;2.53;;
65230;SDS011;51813;40.666;16.602;2023-04-24T13:13:43;5.35;;;3.10;;
65230;SDS011;51813;40.666;16.602;2023-04-24T13:16:08;4.28;;;2.67;;
65230;SDS011;51813;40.666;16.602;2023-04-24T13:18:34;4.18;;;2.67;;
65230;SDS011;51813;40.666;16.602;2023-04-24T13:21:00;5.40;;;2.65;;
65230;SDS011;51813;40.666;16.602;2023-04-24T13:23:26;4.38;;;2.00;;
65230;SDS011;51813;40.666;16.602;2023-04-24T13:25:52;3.67;;;2.35;;
65230;SDS011;51813;40.666;16.602;2023-04-24T13:28:22;5.30;;;2.30;;
65230;SDS011;51813;40.666;16.602;2023-04-24T13:30:48;4.38;;;2.47;;
65230;SDS011;51813;40.666;16.602;2023-04-24T13:33:14;5.20;;;2.58;;
65230;SDS011;51813;40.666;16.602;2023-04-24T13:35:39;4.88;;;2.50;;
65230;SDS011;51813;40.666;16.602;2023-04-24T13:38:05;3.20;;;2.20;;
65230;SDS011;51813;40.666;16.602;2023-04-24T13:40:31;4.05;;;2.33;;
65230;SDS011;51813;40.666;16.602;2023-04-24T13:42:57;3.67;;;2.33;;
65230;SDS011;51813;40.666;16.602;2023-04-24T13:45:23;4.22;;;2.60;;
65230;SDS011;51813;40.666;16.602;2023-04-24T13:47:49;4.85;;;2.17;;
65230;SDS011;51813;40.666;16.602;2023-04-24T13:50:15;5.10;;;2.75;;
65230;SDS011;51813;40.666;16.602;2023-04-24T13:52:40;4.18;;;2.42;;
65230;SDS011;51813;40.666;16.602;2023-04-24T13:55:06;3.30;;;2.30;;
65230;SDS011;51813;40.666;16.602;2023-04-24T13:57:32;3.13;;;2.10;;
65230;SDS011;51813;40.666;16.602;2023-04-24T13:59:58;5.10;;;2.90;;
65230;SDS011;51813;40.666;16.602;2023-04-24T14:02:28;5.10;;;2.53;;
65230;SDS011;51813;40.666;16.602;2023-04-24T14:04:54;3.20;;;2.40;;
65230;SDS011;51813;40.666;16.602;2023-04-24T14:07:20;3.22;;;2.50;;
65230;SDS011;51813;40.666;16.602;2023-04-24T14:09:46;3.80;;;2.22;;
65230;SDS011;51813;40.666;16.602;2023-04-24T14:12:12;4.35;;;2.92;;
65230;SDS011;51813;40.666;16.602;2023-04-24T14:14:39;3.85;;;2.50;;
65230;SDS011;51813;40.666;16.602;2023-04-24T14:17:05;4.30;;;2.30;;
65230;SDS011;51813;40.666;16.602;2023-04-24T14:19:30;4.28;;;1.95;;
65230;SDS011;51813;40.666;16.602;2023-04-24T14:21:56;3.40;;;2.30;;
65230;SDS011;51813;40.666;16.602;2023-04-24T14:24:23;3.55;;;2.35;;
65230;SDS011;51813;40.666;16.602;2023-04-24T14:26:49;3.60;;;2.25;;
65230;SDS011;51813;40.666;16.602;2023-04-24T14:29:14;3.60;;;2.30;;
65230;SDS011;51813;40.666;16.602;2023-04-24T14:31:41;3.97;;;2.10;;
65230;SDS011;51813;40.666;16.602;2023-04-24T14:34:07;3.63;;;2.30;;
65230;SDS011;51813;40.666;16.602;2023-04-24T14:36:33;3.20;;;2.00;;
65230;SDS011;51813;40.666;16.602;2023-04-24T14:38:59;3.20;;;2.38;;
65230;SDS011;51813;40.666;16.602;2023-04-24T14:41:24;3.17;;;2.30;;